Time;durP1;ratioP1;P1;durP2;ratioP2;P2;SDS_P1;SDS_P2;PMS_P1;PMS_P2;Temp;Humidity;BMP_temperature;BMP_pressure;BME280_temperature;BME280_humidity;BME280_pressure;Samples;Min_cycle;Max_cycle;Signal;HPM_P1;HPM_P2
2024/04/29 00:00:29;;;;;;;3.70;2.05;;;22.40;99.90;;;;;;5361971;21;20170;-52
2024/04/29 00:02:55;;;;;;;3.63;1.88;;;22.40;99.90;;;;;;5377942;26;20000;-53
2024/04/29 00:05:20;;;;;;;3.67;2.30;;;22.40;99.90;;;;;;5378118;26;20028;-53
2024/04/29 00:07:46;;;;;;;3.00;2.08;;;22.40;99.90;;;;;;5377961;26;20410;-53
2024/04/29 00:10:12;;;;;;;3.03;2.08;;;22.40;99.90;;;;;;5379620;26;20413;-54
2024/04/29 00:12:38;;;;;;;2.42;1.73;;;22.40;99.90;;;;;;5381772;26;20498;-54
2024/04/29 00:15:05;;;;;;;3.30;2.35;;;22.40;99.90;;;;;;5381684;26;20007;-54
2024/04/29 00:17:31;;;;;;;2.45;2.17;;;22.40;99.90;;;;;;5381528;26;20346;-54
2024/04/29 00:19:57;;;;;;;3.88;2.00;;;22.40;99.90;;;;;;5381396;26;19992;-54
2024/04/29 00:22:22;;;;;;;3.83;2.00;;;22.40;99.90;;;;;;5381675;26;20020;-54
2024/04/29 00:24:48;;;;;;;2.67;2.08;;;22.40;99.90;;;;;;5381191;26;20007;-54
2024/04/29 00:27:14;;;;;;;2.67;1.98;;;22.40;99.90;;;;;;5381464;26;20000;-54
2024/04/29 00:29:41;;;;;;;3.00;2.20;;;22.40;99.90;;;;;;5381562;26;20007;-55
2024/04/29 00:32:07;;;;;;;3.78;2.42;;;22.30;99.90;;;;;;5381727;26;19996;-54
2024/04/29 00:34:32;;;;;;;3.22;2.10;;;22.40;99.90;;;;;;5381445;26;20332;-54
2024/04/29 00:36:58;;;;;;;5.68;3.17;;;22.30;99.90;;;;;;5381419;26;20029;-53
2024/04/29 00:39:24;;;;;;;3.63;2.20;;;22.30;99.90;;;;;;5381285;26;20069;-54
2024/04/29 00:41:50;;;;;;;3.83;2.78;;;22.30;99.90;;;;;;5381221;26;20000;-54
2024/04/29 00:44:15;;;;;;;3.30;2.53;;;22.30;99.90;;;;;;5381038;26;19996;-56
2024/04/29 00:46:41;;;;;;;4.72;2.95;;;22.30;99.90;;;;;;5381026;26;19996;-54
2024/04/29 00:49:07;;;;;;;3.55;2.60;;;22.30;99.90;;;;;;5381416;26;20042;-54
2024/04/29 00:51:33;;;;;;;5.75;2.45;;;22.30;99.90;;;;;;5381180;26;19996;-54
2024/04/29 00:54:00;;;;;;;3.88;2.63;;;22.30;99.90;;;;;;5381204;26;20003;-54
2024/04/29 00:56:26;;;;;;;3.88;2.83;;;22.30;99.90;;;;;;5381232;26;20436;-54
2024/04/29 00:58:53;;;;;;;4.05;2.78;;;22.30;99.90;;;;;;5381263;26;20000;-54
2024/04/29 01:01:19;;;;;;;4.32;2.95;;;22.30;99.90;;;;;;5409374;26;20014;-54
2024/04/29 01:03:46;;;;;;;4.38;3.50;;;22.30;99.90;;;;;;5381044;26;19992;-53
2024/04/29 01:06:12;;;;;;;4.00;2.55;;;22.30;99.90;;;;;;5380827;26;20000;-54
2024/04/29 01:08:38;;;;;;;3.47;2.80;;;22.30;99.90;;;;;;5379714;26;20430;-53
2024/04/29 01:11:05;;;;;;;2.85;2.55;;;22.30;99.90;;;;;;5408556;26;19996;-53
2024/04/29 01:13:31;;;;;;;4.85;3.15;;;22.20;99.90;;;;;;5380616;26;20003;-53
2024/04/29 01:15:56;;;;;;;3.47;2.58;;;22.20;99.90;;;;;;5380693;26;19996;-53
2024/04/29 01:18:22;;;;;;;2.88;2.42;;;22.20;99.90;;;;;;5380868;26;20386;-53
2024/04/29 01:20:48;;;;;;;6.53;3.35;;;22.20;99.90;;;;;;5380553;26;20007;-53
2024/04/29 01:23:14;;;;;;;4.28;2.83;;;22.20;99.90;;;;;;5380420;26;20101;-54
2024/04/29 01:25:40;;;;;;;4.95;2.72;;;22.20;99.90;;;;;;5380520;26;20446;-54
2024/04/29 01:28:06;;;;;;;4.10;2.63;;;22.20;99.90;;;;;;5380667;26;19992;-54
2024/04/29 01:30:32;;;;;;;3.60;2.58;;;22.20;99.90;;;;;;5380416;26;19992;-54
2024/04/29 01:32:57;;;;;;;6.00;3.38;;;22.20;99.90;;;;;;5380446;26;19992;-53
2024/04/29 01:35:23;;;;;;;3.72;2.90;;;22.20;99.90;;;;;;5380546;26;20065;-53
2024/04/29 01:37:49;;;;;;;4.78;3.25;;;22.20;99.90;;;;;;5380454;26;19992;-54
2024/04/29 01:40:15;;;;;;;3.22;2.83;;;22.20;99.90;;;;;;5380361;26;20482;-53
2024/04/29 01:42:41;;;;;;;3.92;3.00;;;22.20;99.90;;;;;;5407581;26;20000;-53
2024/04/29 01:45:07;;;;;;;4.30;3.33;;;22.20;99.90;;;;;;5380451;26;20035;-54
2024/04/29 01:47:33;;;;;;;4.43;2.85;;;22.10;99.90;;;;;;5380331;26;20051;-53
2024/04/29 01:49:59;;;;;;;3.88;3.28;;;22.20;99.90;;;;;;5380088;26;19997;-53
2024/04/29 01:52:25;;;;;;;4.43;3.08;;;22.20;99.90;;;;;;5380183;26;20007;-53
2024/04/29 01:54:51;;;;;;;4.55;3.38;;;22.20;99.90;;;;;;5379921;26;20024;-54
2024/04/29 01:57:16;;;;;;;5.10;3.35;;;22.20;99.90;;;;;;5380370;26;20003;-53
2024/04/29 01:59:42;;;;;;;4.28;3.55;;;22.20;99.90;;;;;;5380174;26;20335;-53
2024/04/29 02:02:08;;;;;;;6.63;3.47;;;22.10;99.90;;;;;;5380503;26;20008;-53
2024/04/29 02:04:34;;;;;;;4.75;3.30;;;22.10;99.90;;;;;;5380080;26;20011;-53
2024/04/29 02:07:00;;;;;;;3.60;3.05;;;22.10;99.90;;;;;;5380036;26;20425;-53
2024/04/29 02:09:25;;;;;;;5.82;3.38;;;22.10;99.90;;;;;;5380062;26;19992;-54
2024/04/29 02:11:51;;;;;;;4.38;3.03;;;22.10;99.90;;;;;;5407764;26;19993;-56
2024/04/29 02:14:17;;;;;;;3.42;2.75;;;22.10;99.90;;;;;;5379688;26;20006;-53
2024/04/29 02:16:43;;;;;;;4.93;3.67;;;22.10;99.90;;;;;;5380008;26;20509;-53
2024/04/29 02:19:08;;;;;;;5.03;3.20;;;22.10;99.90;;;;;;5381180;26;20410;-53
2024/04/29 02:21:34;;;;;;;5.15;3.42;;;22.10;99.90;;;;;;5382981;26;19996;-53
2024/04/29 02:24:00;;;;;;;5.30;3.53;;;22.10;99.90;;;;;;5383241;26;20016;-53
2024/04/29 02:26:26;;;;;;;3.88;2.88;;;22.10;99.90;;;;;;5383292;26;20379;-52
2024/04/29 02:28:51;;;;;;;4.78;3.25;;;22.10;99.90;;;;;;5383191;26;19996;-53
2024/04/29 02:31:17;;;;;;;4.22;3.03;;;22.10;99.90;;;;;;5383109;26;19996;-52
2024/04/29 02:33:43;;;;;;;3.40;3.00;;;22.10;99.90;;;;;;5383574;26;20405;-54
2024/04/29 02:36:09;;;;;;;4.45;3.15;;;22.10;99.90;;;;;;5383041;26;19996;-53
2024/04/29 02:38:35;;;;;;;4.90;3.40;;;22.00;99.90;;;;;;5382961;26;20009;-54
2024/04/29 02:41:01;;;;;;;5.05;3.20;;;22.00;99.90;;;;;;5383066;26;19996;-53
2024/04/29 02:43:27;;;;;;;3.40;2.70;;;22.00;99.90;;;;;;5383229;26;20024;-53
2024/04/29 02:45:52;;;;;;;4.55;3.00;;;22.00;99.90;;;;;;5383074;26;20041;-53
2024/04/29 02:48:18;;;;;;;4.93;3.63;;;22.00;99.90;;;;;;5382867;26;20007;-54
2024/04/29 02:50:44;;;;;;;4.38;3.28;;;22.00;99.90;;;;;;5382994;26;20070;-53
2024/04/29 02:53:10;;;;;;;4.78;3.05;;;22.00;99.90;;;;;;5382617;26;20066;-53
2024/04/29 02:55:36;;;;;;;5.10;3.30;;;22.00;99.90;;;;;;5410657;26;20007;-53
2024/04/29 02:58:01;;;;;;;5.47;3.75;;;22.00;99.90;;;;;;5382941;26;19992;-53
2024/04/29 03:02:57;;;;;;;4.63;3.20;;;22.00;99.90;;;;;;5345667;26;20041;-49
2024/04/29 03:05:22;;;;;;;5.00;3.17;;;22.00;99.90;;;;;;5348015;26;20325;-49
2024/04/29 03:07:48;;;;;;;4.63;3.67;;;22.00;99.90;;;;;;5346661;26;20001;-49
2024/04/29 03:10:14;;;;;;;4.03;3.42;;;22.00;99.90;;;;;;5323935;26;19998;-49
2024/04/29 03:12:41;;;;;;;3.33;2.88;;;22.00;99.90;;;;;;5327663;26;20446;-49
2024/04/29 03:15:06;;;;;;;4.57;3.53;;;22.00;99.90;;;;;;5330260;26;19997;-49
2024/04/29 03:17:32;;;;;;;5.35;3.88;;;22.00;99.90;;;;;;5334750;26;20012;-48
2024/04/29 03:19:58;;;;;;;4.38;3.30;;;22.00;99.90;;;;;;5347285;26;20008;-48
2024/04/29 03:22:24;;;;;;;4.32;3.58;;;21.90;99.90;;;;;;5347511;26;20008;-48
2024/04/29 03:24:49;;;;;;;5.20;3.70;;;21.90;99.90;;;;;;5315810;26;19997;-49
2024/04/29 03:27:15;;;;;;;3.42;3.13;;;21.90;99.90;;;;;;5344102;26;20008;-49
2024/04/29 03:29:41;;;;;;;6.10;4.50;;;21.90;99.90;;;;;;5343794;26;20005;-49
2024/04/29 03:32:07;;;;;;;4.07;3.22;;;21.90;99.90;;;;;;5343264;26;19993;-49
2024/04/29 03:34:32;;;;;;;5.07;3.40;;;21.90;99.90;;;;;;5344214;26;19996;-49
2024/04/29 03:36:58;;;;;;;5.78;3.55;;;21.90;99.90;;;;;;5342284;26;20074;-49
2024/04/29 03:39:24;;;;;;;3.38;3.00;;;21.90;99.90;;;;;;5344256;26;20334;-49
2024/04/29 03:41:50;;;;;;;4.15;3.25;;;21.90;99.90;;;;;;5345587;26;20069;-49
2024/04/29 03:44:16;;;;;;;5.00;3.50;;;21.90;99.90;;;;;;5347460;26;20440;-49
2024/04/29 03:46:41;;;;;;;4.13;3.05;;;21.90;99.90;;;;;;5347466;26;20008;-48
2024/04/29 03:49:09;;;;;;;4.38;3.00;;;21.90;99.90;;;;;;5347729;26;20004;-49
2024/04/29 03:51:36;;;;;;;4.47;3.30;;;21.90;99.90;;;;;;5345580;26;20733;-49
2024/04/29 03:54:02;;;;;;;4.07;2.95;;;21.90;99.90;;;;;;5347620;26;20004;-49
2024/04/29 03:56:28;;;;;;;4.32;3.10;;;21.90;99.90;;;;;;5347201;26;19997;-48
2024/04/29 03:58:54;;;;;;;3.95;3.00;;;21.80;99.90;;;;;;5347229;26;20003;-48
2024/04/29 04:01:19;;;;;;;3.88;2.83;;;21.90;99.90;;;;;;5347525;26;20457;-48
2024/04/29 04:03:45;;;;;;;5.90;3.33;;;21.80;99.90;;;;;;5347239;26;19997;-48
2024/04/29 04:06:11;;;;;;;5.18;3.20;;;21.80;99.90;;;;;;5347057;26;20009;-49
2024/04/29 04:08:37;;;;;;;5.22;3.25;;;21.80;99.90;;;;;;5347173;26;19993;-48
2024/04/29 04:11:03;;;;;;;5.20;3.35;;;21.90;99.90;;;;;;5347192;26;20332;-49
2024/04/29 04:13:29;;;;;;;4.30;3.25;;;21.80;99.90;;;;;;5347304;26;19993;-49
2024/04/29 04:15:54;;;;;;;4.18;3.42;;;21.80;99.90;;;;;;5346826;26;21055;-49
2024/04/29 04:18:20;;;;;;;5.07;3.40;;;21.80;99.90;;;;;;5346924;26;20334;-50
2024/04/29 04:20:46;;;;;;;3.28;2.42;;;21.80;99.90;;;;;;5345206;26;20011;-50
2024/04/29 04:23:12;;;;;;;4.53;3.22;;;21.80;99.90;;;;;;5346997;26;20008;-50
2024/04/29 04:25:37;;;;;;;3.83;3.20;;;21.80;99.90;;;;;;5346940;26;20025;-50
2024/04/29 04:28:03;;;;;;;6.25;3.10;;;21.80;99.90;;;;;;5347102;26;20449;-50
2024/04/29 04:30:29;;;;;;;6.72;2.80;;;21.80;99.90;;;;;;5346795;26;19997;-51
2024/04/29 04:32:55;;;;;;;4.95;2.55;;;21.80;99.90;;;;;;5346940;26;20001;-49
2024/04/29 04:35:20;;;;;;;4.25;2.85;;;21.80;99.90;;;;;;5346629;26;19993;-51
2024/04/29 04:37:46;;;;;;;3.83;3.03;;;21.80;99.90;;;;;;5346822;26;20441;-49
2024/04/29 04:40:12;;;;;;;3.65;2.85;;;21.80;99.90;;;;;;5346777;26;20437;-50
2024/04/29 04:42:38;;;;;;;4.00;2.97;;;21.80;99.90;;;;;;5346326;26;20511;-50
2024/04/29 04:45:04;;;;;;;4.60;2.92;;;21.80;99.90;;;;;;5346855;26;20001;-50
2024/04/29 04:47:30;;;;;;;3.47;2.85;;;21.80;99.90;;;;;;5346632;26;19993;-50
2024/04/29 04:49:56;;;;;;;3.67;3.05;;;21.70;99.90;;;;;;5346534;26;19997;-50
2024/04/29 04:52:22;;;;;;;3.47;2.70;;;21.80;99.90;;;;;;5346450;26;20007;-49
2024/04/29 04:54:47;;;;;;;5.13;2.90;;;21.80;99.90;;;;;;5346547;26;20005;-49
2024/04/29 04:57:13;;;;;;;3.50;2.72;;;21.80;99.90;;;;;;5346443;26;20004;-48
2024/04/29 04:59:39;;;;;;;6.65;3.15;;;21.80;99.90;;;;;;5346431;26;19993;-48
2024/04/29 05:02:05;;;;;;;4.25;2.80;;;21.70;99.90;;;;;;5343533;26;20020;-48
2024/04/29 05:04:30;;;;;;;4.63;2.95;;;21.70;99.90;;;;;;5342765;26;19996;-48
2024/04/29 05:06:56;;;;;;;5.03;3.10;;;21.80;99.90;;;;;;5342829;26;19996;-49
2024/04/29 05:09:22;;;;;;;4.85;3.05;;;21.80;99.90;;;;;;5342780;26;20009;-48
2024/04/29 05:11:48;;;;;;;3.78;2.80;;;21.70;99.90;;;;;;5342611;26;20789;-49
2024/04/29 05:14:13;;;;;;;3.70;2.55;;;21.70;99.90;;;;;;5342478;26;20009;-50
2024/04/29 05:16:39;;;;;;;4.22;2.47;;;21.70;99.90;;;;;;5342988;26;20012;-49
2024/04/29 05:19:05;;;;;;;2.90;2.20;;;21.70;99.90;;;;;;5346501;26;20008;-48
2024/04/29 05:21:31;;;;;;;3.90;2.35;;;21.70;99.90;;;;;;5346274;26;20004;-47
2024/04/29 05:23:56;;;;;;;5.32;2.38;;;21.70;99.90;;;;;;5346058;26;20013;-48
2024/04/29 05:26:22;;;;;;;2.50;2.08;;;21.70;99.90;;;;;;5345977;26;20403;-48
2024/04/29 05:28:48;;;;;;;3.40;2.17;;;21.70;99.90;;;;;;5346195;26;20005;-48
2024/04/29 05:31:14;;;;;;;6.30;2.60;;;21.70;99.90;;;;;;5345975;26;20012;-47
2024/04/29 05:33:40;;;;;;;3.33;2.22;;;21.70;99.90;;;;;;5346067;26;20000;-47
2024/04/29 05:36:06;;;;;;;3.65;2.33;;;21.70;99.90;;;;;;5346026;26;20416;-48
2024/04/29 05:38:31;;;;;;;4.13;2.30;;;21.70;99.90;;;;;;5345818;26;20009;-49
2024/04/29 05:40:57;;;;;;;3.28;2.70;;;21.70;99.90;;;;;;5345874;26;19997;-50
2024/04/29 05:43:23;;;;;;;3.28;2.35;;;21.60;99.90;;;;;;5344106;26;20004;-49
2024/04/29 05:45:49;;;;;;;3.67;2.55;;;21.70;99.90;;;;;;5345834;26;20033;-49
2024/04/29 05:48:14;;;;;;;3.30;2.05;;;21.60;99.90;;;;;;5344047;26;20103;-49
2024/04/29 05:50:40;;;;;;;2.80;2.22;;;21.60;99.90;;;;;;5345639;26;20007;-49
2024/04/29 05:53:06;;;;;;;3.75;2.10;;;21.60;99.90;;;;;;5346022;26;20349;-49
2024/04/29 05:55:32;;;;;;;2.92;2.22;;;21.60;99.90;;;;;;5348599;26;20013;-49
2024/04/29 05:57:57;;;;;;;4.03;2.60;;;21.60;99.90;;;;;;5348691;26;20007;-49
2024/04/29 06:00:23;;;;;;;3.33;2.38;;;21.60;99.90;;;;;;5348602;26;20039;-50
2024/04/29 06:02:51;;;;;;;3.95;2.60;;;21.60;99.90;;;;;;5348901;26;20433;-49
2024/04/29 06:05:17;;;;;;;;;;;21.60;99.90;;;;;;5349368;26;20001;-49
2024/04/29 06:07:42;;;;;;;3.63;2.60;;;21.70;99.90;;;;;;5348595;26;19936;-49
2024/04/29 06:10:09;;;;;;;3.80;2.63;;;21.60;99.90;;;;;;5348917;26;19993;-51
2024/04/29 06:12:35;;;;;;;3.55;2.28;;;21.60;99.90;;;;;;5348606;26;20430;-49
2024/04/29 06:15:01;;;;;;;3.35;2.33;;;21.60;99.90;;;;;;5348373;26;20007;-50
2024/04/29 06:17:27;;;;;;;3.05;2.50;;;21.60;99.90;;;;;;5348595;26;19997;-51
2024/04/29 06:19:53;;;;;;;4.28;2.92;;;21.60;99.90;;;;;;5348425;26;20001;-49
2024/04/29 06:22:19;;;;;;;3.50;2.60;;;21.60;99.90;;;;;;5346718;26;20003;-50
2024/04/29 06:24:44;;;;;;;4.07;2.60;;;21.60;99.90;;;;;;5348444;26;20512;-49
2024/04/29 06:27:10;;;;;;;4.15;2.50;;;21.60;99.90;;;;;;5348702;26;20396;-49
2024/04/29 06:29:36;;;;;;;3.28;2.50;;;21.60;99.90;;;;;;5317895;26;20044;-49
2024/04/29 06:32:02;;;;;;;4.55;2.80;;;21.60;99.90;;;;;;5348061;26;20062;-50
2024/04/29 06:34:28;;;;;;;4.95;2.53;;;21.60;99.90;;;;;;5348078;26;20004;-50
2024/04/29 06:36:55;;;;;;;3.22;2.47;;;21.60;99.90;;;;;;5348373;26;20425;-50
2024/04/29 06:39:21;;;;;;;2.85;2.20;;;21.60;99.90;;;;;;5348119;26;20025;-50
2024/04/29 06:41:47;;;;;;;3.45;2.50;;;21.60;99.90;;;;;;5348236;26;20008;-50
2024/04/29 06:44:13;;;;;;;2.85;2.35;;;21.60;99.90;;;;;;5348420;26;19992;-50
2024/04/29 06:46:39;;;;;;;4.82;2.63;;;21.60;99.90;;;;;;5341069;26;20013;-50
2024/04/29 06:49:04;;;;;;;4.82;2.72;;;21.60;99.90;;;;;;5328539;26;20314;-50
2024/04/29 06:51:30;;;;;;;4.18;2.67;;;21.70;99.90;;;;;;5330898;26;19997;-49
2024/04/29 06:53:56;;;;;;;3.60;2.50;;;21.60;99.90;;;;;;5314514;26;20081;-48
2024/04/29 06:56:22;;;;;;;4.88;2.30;;;21.60;99.90;;;;;;5308198;26;19994;-49
2024/04/29 06:58:47;;;;;;;4.97;2.55;;;21.60;99.90;;;;;;5309847;26;20004;-49
2024/04/29 07:01:13;;;;;;;4.28;3.10;;;21.60;99.90;;;;;;5310156;26;20037;-50
2024/04/29 07:03:39;;;;;;;4.45;2.53;;;21.60;99.90;;;;;;5309934;26;20466;-49
2024/04/29 07:06:05;;;;;;;2.75;2.00;;;21.70;99.90;;;;;;5309726;26;19990;-49
2024/04/29 07:08:33;;;;;;;3.53;2.13;;;21.70;99.90;;;;;;5308041;27;20005;-50
2024/04/29 07:11:00;;;;;;;3.25;2.47;;;21.70;99.90;;;;;;5313075;26;20008;-50
2024/04/29 07:13:26;;;;;;;4.90;2.58;;;21.70;99.90;;;;;;5313231;26;20002;-48
2024/04/29 07:15:52;;;;;;;4.55;2.85;;;21.70;99.90;;;;;;5313092;26;20009;-48
2024/04/29 07:18:18;;;;;;;3.28;2.65;;;21.70;99.90;;;;;;5313259;26;20016;-49
2024/04/29 07:20:44;;;;;;;3.47;2.17;;;21.70;99.90;;;;;;5313310;26;20001;-50
2024/04/29 07:23:10;;;;;;;3.10;2.50;;;21.70;99.90;;;;;;5313003;26;20012;-49
2024/04/29 07:25:36;;;;;;;3.72;2.42;;;21.70;99.90;;;;;;5312989;26;20005;-49
2024/04/29 07:28:02;;;;;;;3.70;2.17;;;21.70;99.90;;;;;;5313130;26;20334;-49
2024/04/29 07:30:28;;;;;;;3.85;2.35;;;21.70;99.90;;;;;;5311326;26;20002;-50
2024/04/29 07:32:53;;;;;;;3.50;2.38;;;21.70;99.90;;;;;;5313075;26;20001;-48
2024/04/29 07:35:19;;;;;;;3.88;2.40;;;21.70;99.90;;;;;;5313026;26;20025;-49
2024/04/29 07:37:45;;;;;;;3.05;2.22;;;21.70;99.90;;;;;;5313110;26;19998;-49
2024/04/29 07:40:11;;;;;;;3.15;2.35;;;21.70;99.90;;;;;;5312871;26;20006;-49
2024/04/29 07:42:37;;;;;;;2.40;1.83;;;21.70;99.90;;;;;;5312919;26;19998;-48
2024/04/29 07:45:03;;;;;;;3.45;2.80;;;21.70;99.90;;;;;;5311251;27;20006;-49
2024/04/29 07:47:28;;;;;;;5.72;2.78;;;21.70;99.90;;;;;;5312888;26;20002;-49
2024/04/29 07:49:54;;;;;;;3.30;1.60;;;21.70;99.90;;;;;;5311183;27;20335;-49
2024/04/29 07:52:20;;;;;;;4.55;2.10;;;21.70;99.90;;;;;;5310969;27;20012;-49
2024/04/29 07:54:46;;;;;;;3.38;2.25;;;21.70;99.90;;;;;;5312997;26;20002;-50
2024/04/29 07:57:12;;;;;;;3.95;2.40;;;21.70;99.90;;;;;;5339762;26;20017;-49
2024/04/29 07:59:37;;;;;;;3.88;2.00;;;21.70;99.90;;;;;;5312656;26;20412;-50
2024/04/29 08:02:03;;;;;;;2.30;2.10;;;21.70;99.90;;;;;;5312316;26;20002;-49
2024/04/29 08:04:29;;;;;;;3.85;2.40;;;21.70;99.90;;;;;;5339641;26;20009;-49
2024/04/29 08:06:55;;;;;;;3.50;2.17;;;21.70;99.90;;;;;;5312587;26;19998;-49
2024/04/29 08:09:21;;;;;;;3.90;2.33;;;21.70;99.90;;;;;;5312728;26;20076;-49
2024/04/29 08:11:46;;;;;;;3.33;2.22;;;21.70;99.90;;;;;;5312819;26;20017;-49
2024/04/29 08:14:12;;;;;;;2.88;2.10;;;21.70;99.90;;;;;;5312332;26;20072;-49
2024/04/29 08:16:38;;;;;;;3.67;2.30;;;21.70;99.90;;;;;;5311611;26;20013;-49
2024/04/29 08:19:03;;;;;;;2.25;1.92;;;21.70;99.90;;;;;;5312414;26;20009;-50
2024/04/29 08:21:29;;;;;;;2.95;2.05;;;21.70;99.90;;;;;;5312277;26;20002;-50
2024/04/29 08:23:55;;;;;;;4.05;2.25;;;21.70;99.90;;;;;;5312334;26;20315;-50
2024/04/29 08:26:21;;;;;;;3.45;2.47;;;21.70;99.90;;;;;;5312394;26;20013;-49
2024/04/29 08:28:47;;;;;;;2.47;1.73;;;21.70;99.90;;;;;;5312561;26;20355;-48
2024/04/29 08:31:13;;;;;;;4.97;2.30;;;21.70;99.90;;;;;;5312344;26;20082;-49
2024/04/29 08:33:39;;;;;;;3.35;2.33;;;21.70;99.90;;;;;;5312275;26;20008;-50
2024/04/29 08:36:05;;;;;;;3.58;2.03;;;21.70;99.90;;;;;;5312272;26;19997;-49
2024/04/29 08:38:31;;;;;;;3.00;2.40;;;21.70;99.90;;;;;;5312383;26;20013;-50
2024/04/29 08:40:57;;;;;;;4.13;2.47;;;21.70;99.90;;;;;;5312071;26;20025;-49
2024/04/29 08:43:23;;;;;;;3.83;2.30;;;21.70;99.90;;;;;;5312245;26;20050;-48
2024/04/29 08:45:51;;;;;;;3.10;1.92;;;21.70;99.90;;;;;;5312264;26;20006;-49
2024/04/29 08:48:20;;;;;;;3.28;2.22;;;21.70;99.90;;;;;;5312359;26;20465;-50
2024/04/29 08:50:46;;;;;;;3.00;2.20;;;21.80;99.90;;;;;;5312031;26;20283;-49
2024/04/29 08:53:12;;;;;;;3.30;2.53;;;21.80;99.90;;;;;;5312120;26;20008;-49
2024/04/29 08:55:39;;;;;;;4.82;2.22;;;21.80;99.90;;;;;;5310111;27;20001;-49
2024/04/29 08:58:05;;;;;;;5.43;2.67;;;21.80;99.90;;;;;;5312186;26;20001;-49
2024/04/29 09:00:33;;;;;;;3.17;1.98;;;21.80;99.90;;;;;;5312073;26;20492;-50
2024/04/29 09:02:59;;;;;;;2.28;1.83;;;21.80;99.90;;;;;;5311846;26;20334;-50
2024/04/29 09:05:25;;;;;;;6.70;1.88;;;21.80;99.90;;;;;;5311848;26;20002;-49
2024/04/29 09:07:51;;;;;;;3.15;2.10;;;21.80;99.90;;;;;;5312067;26;20032;-49
2024/04/29 09:10:17;;;;;;;4.15;2.40;;;21.80;99.90;;;;;;5310394;26;20013;-49
2024/04/29 09:12:42;;;;;;;4.07;2.30;;;21.80;99.90;;;;;;5311772;26;20369;-49
2024/04/29 09:15:12;;;;;;;4.80;2.08;;;21.80;99.90;;;;;;5311451;26;20008;-49
2024/04/29 09:17:39;;;;;;;2.92;1.98;;;21.80;99.90;;;;;;5311617;26;20338;-49
2024/04/29 09:20:06;;;;;;;2.67;2.00;;;21.80;99.90;;;;;;5311474;26;20012;-49
2024/04/29 09:22:31;;;;;;;2.80;1.80;;;21.80;99.90;;;;;;5311384;26;20474;-49
2024/04/29 09:24:57;;;;;;;3.20;2.00;;;21.80;99.90;;;;;;5311666;26;19997;-50
2024/04/29 09:27:23;;;;;;;2.75;1.65;;;21.80;99.90;;;;;;5311398;26;20009;-49
2024/04/29 09:29:49;;;;;;;4.22;2.20;;;21.80;99.90;;;;;;5310285;26;20394;-50
2024/04/29 09:32:15;;;;;;;5.30;2.35;;;21.80;99.90;;;;;;5311430;26;20010;-49
2024/04/29 09:34:41;;;;;;;3.47;2.08;;;21.80;99.90;;;;;;5311307;26;19999;-49
2024/04/29 09:37:08;;;;;;;3.28;2.17;;;21.80;99.90;;;;;;5309801;27;20338;-49
2024/04/29 09:39:34;;;;;;;3.83;1.73;;;21.80;99.90;;;;;;5311305;26;20001;-49
2024/04/29 09:42:00;;;;;;;3.53;1.90;;;21.80;99.90;;;;;;5311212;26;20330;-50
2024/04/29 09:44:54;;;;;;;3.45;1.95;;;21.80;99.90;;;;;;5311249;26;20012;-50
2024/04/29 09:47:24;;;;;;;2.78;1.65;;;21.80;99.90;;;;;;5311453;26;20009;-50
2024/04/29 09:49:52;;;;;;;4.40;1.70;;;21.80;99.90;;;;;;5311507;26;20012;-49
2024/04/29 09:52:19;;;;;;;2.60;1.83;;;21.80;99.90;;;;;;5311164;26;19997;-49
2024/04/29 09:54:46;;;;;;;2.75;1.50;;;21.80;99.90;;;;;;5311080;26;19998;-50
2024/04/29 09:57:12;;;;;;;3.78;2.10;;;21.80;99.90;;;;;;5311135;26;20341;-50
2024/04/29 09:59:40;;;;;;;4.28;2.00;;;21.80;99.90;;;;;;5309085;27;20097;-50
2024/04/29 10:02:07;;;;;;;3.38;2.03;;;21.80;99.90;;;;;;5310922;26;20075;-50
2024/04/29 10:04:34;;;;;;;3.20;2.08;;;21.80;99.90;;;;;;5309378;27;20002;-49
2024/04/29 10:07:07;;;;;;;3.10;2.10;;;21.80;99.90;;;;;;5311053;26;20001;-49
2024/04/29 10:09:45;;;;;;;5.30;2.03;;;21.90;99.90;;;;;;5310744;26;20005;-49
2024/04/29 10:12:12;;;;;;;5.07;2.65;;;21.90;99.90;;;;;;5311863;26;20335;-49
2024/04/29 10:14:38;;;;;;;3.33;1.88;;;21.90;99.90;;;;;;5326134;26;19997;-49
2024/04/29 10:17:07;;;;;;;3.88;2.63;;;21.90;99.90;;;;;;5325189;26;19998;-48
2024/04/29 10:19:33;;;;;;;2.53;2.15;;;21.90;99.90;;;;;;5343296;26;20400;-49
2024/04/29 10:21:59;;;;;;;3.53;2.30;;;21.90;99.90;;;;;;5344215;26;20453;-49
2024/04/29 10:24:32;;;;;;;2.85;2.00;;;21.90;99.90;;;;;;5342836;26;20001;-50
2024/04/29 10:27:06;;;;;;;4.10;2.40;;;21.90;99.90;;;;;;5341268;26;20071;-49
2024/04/29 10:29:32;;;;;;;6.10;2.60;;;21.90;99.90;;;;;;5341113;26;20048;-51
2024/04/29 10:31:59;;;;;;;3.45;2.00;;;21.90;99.90;;;;;;5341223;26;20013;-50
2024/04/29 10:34:29;;;;;;;3.38;2.05;;;21.90;99.90;;;;;;5341278;26;20029;-49
2024/04/29 10:36:55;;;;;;;2.70;1.83;;;22.00;99.90;;;;;;5340912;26;20016;-50
2024/04/29 10:39:21;;;;;;;3.00;2.28;;;22.00;99.90;;;;;;5342073;26;20430;-49
2024/04/29 10:41:46;;;;;;;3.22;2.22;;;22.00;99.90;;;;;;5346243;26;20001;-50
2024/04/29 10:44:12;;;;;;;6.47;2.63;;;22.00;99.90;;;;;;5347595;26;20001;-48
2024/04/29 10:46:42;;;;;;;3.40;2.30;;;22.00;99.90;;;;;;5345695;26;20052;-50
2024/04/29 10:49:09;;;;;;;5.20;2.17;;;22.00;99.90;;;;;;5347960;26;20340;-48
2024/04/29 10:51:35;;;;;;;3.35;2.00;;;22.00;99.90;;;;;;5348130;26;20045;-48
2024/04/29 10:54:03;;;;;;;3.72;2.13;;;22.10;99.90;;;;;;5346272;26;19997;-49
2024/04/29 10:56:30;;;;;;;2.47;2.15;;;22.10;99.90;;;;;;5347613;26;20012;-49
2024/04/29 10:59:00;;;;;;;3.28;2.00;;;22.10;99.90;;;;;;5348333;26;20317;-49
2024/04/29 11:01:28;;;;;;;3.65;2.10;;;22.10;99.90;;;;;;5347786;26;20007;-49
2024/04/29 11:03:53;;;;;;;5.72;2.25;;;22.10;99.90;;;;;;5348158;26;20005;-49
2024/04/29 11:06:20;;;;;;;6.20;2.42;;;22.10;99.90;;;;;;5346133;26;20001;-50
2024/04/29 11:08:46;;;;;;;3.65;2.53;;;22.10;99.90;;;;;;5347926;26;20043;-50
2024/04/29 11:11:12;;;;;;;5.05;2.65;;;22.10;99.90;;;;;;5347712;26;20012;-49
2024/04/29 11:13:39;;;;;;;4.72;2.75;;;22.10;99.90;;;;;;5347779;26;20012;-50
2024/04/29 11:16:05;;;;;;;5.72;2.95;;;22.10;99.90;;;;;;5347563;26;20008;-50
2024/04/29 11:18:31;;;;;;;4.78;2.20;;;22.10;99.90;;;;;;5347661;26;20393;-49
2024/04/29 11:20:57;;;;;;;3.95;2.00;;;22.20;99.90;;;;;;5347662;26;20001;-49
2024/04/29 11:23:24;;;;;;;4.50;2.33;;;22.10;99.90;;;;;;5347488;26;20321;-49
2024/04/29 11:25:50;;;;;;;4.57;3.05;;;22.20;99.90;;;;;;5347771;26;20013;-49
2024/04/29 11:28:16;;;;;;;3.78;2.42;;;22.20;99.90;;;;;;5347396;26;20011;-49
2024/04/29 11:30:42;;;;;;;6.65;2.90;;;22.20;99.90;;;;;;5345943;26;19997;-49
2024/04/29 11:33:08;;;;;;;3.75;2.85;;;22.20;99.90;;;;;;5347346;26;20009;-50
2024/04/29 11:35:34;;;;;;;3.05;2.58;;;22.20;99.90;;;;;;5347213;26;20001;-48
2024/04/29 11:37:59;;;;;;;7.35;2.45;;;22.20;99.90;;;;;;5347503;26;20421;-49
2024/04/29 11:40:26;;;;;;;3.60;2.50;;;22.20;99.90;;;;;;5347474;26;20012;-48
2024/04/29 11:42:51;;;;;;;5.07;3.20;;;22.30;99.90;;;;;;5347395;26;20034;-49
2024/04/29 11:45:17;;;;;;;6.28;3.42;;;22.30;99.90;;;;;;5347526;26;19997;-49
2024/04/29 11:47:43;;;;;;;4.90;2.72;;;22.30;99.90;;;;;;5345551;26;20048;-48
2024/04/29 11:50:09;;;;;;;4.70;2.78;;;22.30;99.90;;;;;;5345468;26;20004;-48
2024/04/29 11:52:35;;;;;;;5.45;2.83;;;22.30;99.90;;;;;;5344173;26;20008;-49
2024/04/29 11:55:00;;;;;;;4.40;2.28;;;22.30;99.90;;;;;;5347116;26;20449;-48
2024/04/29 11:57:26;;;;;;;4.25;2.53;;;22.30;99.90;;;;;;5347303;26;20011;-48
2024/04/29 11:59:52;;;;;;;5.93;2.10;;;22.30;99.90;;;;;;5346950;26;20007;-49
2024/04/29 12:02:18;;;;;;;3.75;3.20;;;22.40;99.90;;;;;;5346715;26;20437;-48
2024/04/29 12:04:43;;;;;;;4.03;2.75;;;22.30;99.90;;;;;;5346253;26;20001;-48
2024/04/29 12:07:09;;;;;;;4.40;3.03;;;22.40;99.90;;;;;;5346426;26;20039;-48
2024/04/29 12:09:35;;;;;;;5.38;2.78;;;22.40;99.90;;;;;;5346658;26;20008;-48
2024/04/29 12:12:02;;;;;;;6.10;2.92;;;22.40;99.90;;;;;;5346412;26;20008;-48
2024/04/29 12:14:28;;;;;;;4.72;2.45;;;22.40;99.90;;;;;;5346597;26;20011;-48
2024/04/29 12:16:55;;;;;;;4.88;2.30;;;22.40;99.90;;;;;;5346146;26;19997;-50
2024/04/29 12:19:21;;;;;;;3.70;2.70;;;22.40;99.90;;;;;;5346277;26;20012;-49
2024/04/29 12:21:47;;;;;;;4.93;2.55;;;22.50;99.90;;;;;;5346517;26;20012;-50
2024/04/29 12:24:13;;;;;;;4.32;3.05;;;22.50;99.90;;;;;;5346646;26;20011;-49
2024/04/29 12:26:38;;;;;;;4.85;2.65;;;22.50;99.90;;;;;;5346733;26;20322;-51
2024/04/29 12:29:04;;;;;;;5.07;2.63;;;22.50;99.90;;;;;;5346736;26;20071;-50
2024/04/29 12:31:30;;;;;;;5.25;2.67;;;22.50;99.90;;;;;;5347003;26;20012;-49
2024/04/29 12:33:57;;;;;;;6.13;3.08;;;22.50;99.90;;;;;;5346718;26;19996;-48
2024/04/29 12:36:23;;;;;;;5.07;2.83;;;22.50;99.90;;;;;;5346581;26;20460;-48
2024/04/29 12:38:49;;;;;;;8.70;3.47;;;22.50;99.90;;;;;;5346215;26;20271;-48
2024/04/29 12:41:15;;;;;;;5.00;2.58;;;22.50;99.90;;;;;;5345993;26;19997;-48
2024/04/29 12:43:40;;;;;;;3.22;2.40;;;22.60;99.90;;;;;;5345854;26;19997;-49